sensor_id;sensor_type;location;lat;lon;timestamp;P1;durP1;ratioP1;P2;durP2;ratioP2
14205;SDS011;7186;48.800;9.216;2022-11-20T00:02:12;20.50;;;12.57;;
14205;SDS011;7186;48.800;9.216;2022-11-20T00:04:37;17.30;;;11.10;;
14205;SDS011;7186;48.800;9.216;2022-11-20T00:07:02;21.43;;;11.40;;
14205;SDS011;7186;48.800;9.216;2022-11-20T00:09:27;16.80;;;10.70;;
14205;SDS011;7186;48.800;9.216;2022-11-20T00:11:52;14.80;;;9.60;;
14205;SDS011;7186;48.800;9.216;2022-11-20T00:14:18;16.60;;;10.47;;
14205;SDS011;7186;48.800;9.216;2022-11-20T00:16:43;14.17;;;9.83;;
14205;SDS011;7186;48.800;9.216;2022-11-20T00:19:09;15.03;;;9.73;;
14205;SDS011;7186;48.800;9.216;2022-11-20T00:21:34;16.47;;;9.83;;
14205;SDS011;7186;48.800;9.216;2022-11-20T00:23:59;16.13;;;9.80;;
14205;SDS011;7186;48.800;9.216;2022-11-20T00:26:25;15.10;;;10.37;;
14205;SDS011;7186;48.800;9.216;2022-11-20T00:28:52;18.50;;;10.57;;
14205;SDS011;7186;48.800;9.216;2022-11-20T00:31:18;16.93;;;9.43;;
14205;SDS011;7186;48.800;9.216;2022-11-20T00:33:43;16.70;;;9.40;;
14205;SDS011;7186;48.800;9.216;2022-11-20T00:36:09;17.07;;;10.83;;
14205;SDS011;7186;48.800;9.216;2022-11-20T00:38:35;15.30;;;9.33;;
14205;SDS011;7186;48.800;9.216;2022-11-20T00:41:01;15.93;;;10.40;;
14205;SDS011;7186;48.800;9.216;2022-11-20T00:43:27;17.50;;;10.40;;
14205;SDS011;7186;48.800;9.216;2022-11-20T00:45:56;17.80;;;10.40;;
14205;SDS011;7186;48.800;9.216;2022-11-20T00:48:21;15.43;;;10.33;;
14205;SDS011;7186;48.800;9.216;2022-11-20T00:50:47;15.43;;;9.83;;
14205;SDS011;7186;48.800;9.216;2022-11-20T00:53:12;15.67;;;9.73;;
14205;SDS011;7186;48.800;9.216;2022-11-20T00:55:37;13.47;;;9.23;;
14205;SDS011;7186;48.800;9.216;2022-11-20T00:58:02;15.13;;;10.20;;
14205;SDS011;7186;48.800;9.216;2022-11-20T01:00:27;17.27;;;10.47;;
14205;SDS011;7186;48.800;9.216;2022-11-20T01:02:55;17.27;;;10.57;;
14205;SDS011;7186;48.800;9.216;2022-11-20T01:05:20;16.07;;;10.53;;
14205;SDS011;7186;48.800;9.216;2022-11-20T01:07:45;17.70;;;10.53;;
14205;SDS011;7186;48.800;9.216;2022-11-20T01:10:10;13.90;;;9.60;;
14205;SDS011;7186;48.800;9.216;2022-11-20T01:12:36;15.90;;;10.67;;
14205;SDS011;7186;48.800;9.216;2022-11-20T01:15:01;17.27;;;10.93;;
14205;SDS011;7186;48.800;9.216;2022-11-20T01:17:26;16.40;;;10.00;;
14205;SDS011;7186;48.800;9.216;2022-11-20T01:19:51;21.50;;;11.87;;
14205;SDS011;7186;48.800;9.216;2022-11-20T01:22:17;17.47;;;10.03;;
14205;SDS011;7186;48.800;9.216;2022-11-20T01:24:42;15.03;;;10.20;;
14205;SDS011;7186;48.800;9.216;2022-11-20T01:27:07;15.87;;;10.07;;
14205;SDS011;7186;48.800;9.216;2022-11-20T01:29:32;16.27;;;10.73;;
14205;SDS011;7186;48.800;9.216;2022-11-20T01:31:57;16.93;;;10.60;;
14205;SDS011;7186;48.800;9.216;2022-11-20T01:34:23;18.47;;;11.20;;
14205;SDS011;7186;48.800;9.216;2022-11-20T01:36:49;15.57;;;10.87;;
14205;SDS011;7186;48.800;9.216;2022-11-20T01:39:15;15.90;;;10.23;;
14205;SDS011;7186;48.800;9.216;2022-11-20T01:41:41;17.13;;;10.30;;
14205;SDS011;7186;48.800;9.216;2022-11-20T01:47:09;14.67;;;9.00;;
14205;SDS011;7186;48.800;9.216;2022-11-20T01:49:37;15.80;;;9.97;;
14205;SDS011;7186;48.800;9.216;2022-11-20T01:52:15;16.37;;;9.93;;
14205;SDS011;7186;48.800;9.216;2022-11-20T01:54:46;12.67;;;8.73;;
14205;SDS011;7186;48.800;9.216;2022-11-20T01:57:13;15.00;;;9.87;;
14205;SDS011;7186;48.800;9.216;2022-11-20T01:59:41;14.63;;;9.23;;
14205;SDS011;7186;48.800;9.216;2022-11-20T02:02:09;14.47;;;9.23;;
14205;SDS011;7186;48.800;9.216;2022-11-20T02:04:34;13.10;;;8.83;;
14205;SDS011;7186;48.800;9.216;2022-11-20T02:07:04;12.43;;;8.67;;
14205;SDS011;7186;48.800;9.216;2022-11-20T02:09:29;15.47;;;9.57;;
14205;SDS011;7186;48.800;9.216;2022-11-20T02:11:55;15.00;;;9.60;;
14205;SDS011;7186;48.800;9.216;2022-11-20T02:14:21;15.43;;;9.93;;
14205;SDS011;7186;48.800;9.216;2022-11-20T02:16:47;17.23;;;10.07;;
14205;SDS011;7186;48.800;9.216;2022-11-20T02:19:17;13.80;;;9.03;;
14205;SDS011;7186;48.800;9.216;2022-11-20T02:24:20;12.43;;;7.57;;
14205;SDS011;7186;48.800;9.216;2022-11-20T02:26:51;11.27;;;7.27;;
14205;SDS011;7186;48.800;9.216;2022-11-20T02:29:18;9.67;;;5.40;;
14205;SDS011;7186;48.800;9.216;2022-11-20T02:31:44;10.00;;;5.70;;
14205;SDS011;7186;48.800;9.216;2022-11-20T02:34:10;8.37;;;5.00;;
14205;SDS011;7186;48.800;9.216;2022-11-20T02:36:35;6.47;;;4.63;;
14205;SDS011;7186;48.800;9.216;2022-11-20T02:39:01;8.23;;;4.47;;
14205;SDS011;7186;48.800;9.216;2022-11-20T02:41:30;6.60;;;4.20;;
14205;SDS011;7186;48.800;9.216;2022-11-20T02:43:55;4.17;;;3.47;;
14205;SDS011;7186;48.800;9.216;2022-11-20T02:46:20;7.17;;;3.80;;
14205;SDS011;7186;48.800;9.216;2022-11-20T02:48:46;4.83;;;3.40;;
14205;SDS011;7186;48.800;9.216;2022-11-20T02:51:11;3.97;;;3.30;;
14205;SDS011;7186;48.800;9.216;2022-11-20T02:53:36;3.90;;;3.37;;
14205;SDS011;7186;48.800;9.216;2022-11-20T02:56:01;5.60;;;3.23;;
14205;SDS011;7186;48.800;9.216;2022-11-20T02:58:26;4.27;;;3.30;;
14205;SDS011;7186;48.800;9.216;2022-11-20T03:00:52;4.03;;;3.17;;
14205;SDS011;7186;48.800;9.216;2022-11-20T03:03:17;3.13;;;2.70;;
14205;SDS011;7186;48.800;9.216;2022-11-20T03:05:42;3.93;;;3.20;;
14205;SDS011;7186;48.800;9.216;2022-11-20T03:08:07;3.57;;;2.90;;
14205;SDS011;7186;48.800;9.216;2022-11-20T03:10:32;3.67;;;3.20;;
14205;SDS011;7186;48.800;9.216;2022-11-20T03:12:58;3.90;;;2.93;;
14205;SDS011;7186;48.800;9.216;2022-11-20T03:15:23;3.17;;;2.87;;
14205;SDS011;7186;48.800;9.216;2022-11-20T03:17:48;3.50;;;2.77;;
14205;SDS011;7186;48.800;9.216;2022-11-20T03:20:14;4.50;;;3.43;;
14205;SDS011;7186;48.800;9.216;2022-11-20T03:22:39;7.57;;;3.10;;
14205;SDS011;7186;48.800;9.216;2022-11-20T03:25:04;5.17;;;3.30;;
14205;SDS011;7186;48.800;9.216;2022-11-20T03:27:33;4.20;;;2.73;;
14205;SDS011;7186;48.800;9.216;2022-11-20T03:29:59;4.97;;;3.10;;
14205;SDS011;7186;48.800;9.216;2022-11-20T03:32:24;6.03;;;3.20;;
14205;SDS011;7186;48.800;9.216;2022-11-20T03:34:49;5.07;;;3.27;;
14205;SDS011;7186;48.800;9.216;2022-11-20T03:37:14;4.50;;;3.00;;
14205;SDS011;7186;48.800;9.216;2022-11-20T03:39:40;3.37;;;3.07;;
14205;SDS011;7186;48.800;9.216;2022-11-20T03:42:05;4.60;;;3.20;;
14205;SDS011;7186;48.800;9.216;2022-11-20T03:44:50;3.83;;;3.13;;
14205;SDS011;7186;48.800;9.216;2022-11-20T03:47:15;5.77;;;3.27;;
14205;SDS011;7186;48.800;9.216;2022-11-20T03:49:41;3.80;;;3.17;;
14205;SDS011;7186;48.800;9.216;2022-11-20T03:52:06;4.70;;;3.40;;
14205;SDS011;7186;48.800;9.216;2022-11-20T03:54:31;4.10;;;3.33;;
14205;SDS011;7186;48.800;9.216;2022-11-20T03:56:56;3.63;;;3.10;;
14205;SDS011;7186;48.800;9.216;2022-11-20T03:59:21;4.73;;;3.20;;
14205;SDS011;7186;48.800;9.216;2022-11-20T04:01:47;4.10;;;2.97;;
14205;SDS011;7186;48.800;9.216;2022-11-20T04:04:12;4.63;;;3.30;;
14205;SDS011;7186;48.800;9.216;2022-11-20T04:06:37;4.67;;;3.53;;
14205;SDS011;7186;48.800;9.216;2022-11-20T04:09:03;5.20;;;3.60;;
14205;SDS011;7186;48.800;9.216;2022-11-20T04:11:29;6.60;;;3.60;;
14205;SDS011;7186;48.800;9.216;2022-11-20T04:13:56;3.27;;;2.93;;
14205;SDS011;7186;48.800;9.216;2022-11-20T04:16:21;4.83;;;3.30;;
14205;SDS011;7186;48.800;9.216;2022-11-20T04:18:50;4.00;;;3.20;;
14205;SDS011;7186;48.800;9.216;2022-11-20T04:21:16;5.20;;;3.73;;
14205;SDS011;7186;48.800;9.216;2022-11-20T04:23:41;4.20;;;3.50;;
14205;SDS011;7186;48.800;9.216;2022-11-20T04:26:10;5.13;;;3.00;;
14205;SDS011;7186;48.800;9.216;2022-11-20T04:28:35;3.57;;;3.10;;
14205;SDS011;7186;48.800;9.216;2022-11-20T04:31:10;4.30;;;3.13;;
14205;SDS011;7186;48.800;9.216;2022-11-20T04:33:36;4.63;;;3.47;;
14205;SDS011;7186;48.800;9.216;2022-11-20T04:36:02;4.37;;;3.50;;
14205;SDS011;7186;48.800;9.216;2022-11-20T04:38:31;4.97;;;3.33;;
14205;SDS011;7186;48.800;9.216;2022-11-20T04:40:59;4.23;;;3.00;;
14205;SDS011;7186;48.800;9.216;2022-11-20T04:43:25;3.33;;;2.97;;
14205;SDS011;7186;48.800;9.216;2022-11-20T04:45:51;3.57;;;3.03;;
14205;SDS011;7186;48.800;9.216;2022-11-20T04:48:16;3.93;;;3.27;;
14205;SDS011;7186;48.800;9.216;2022-11-20T04:50:41;3.83;;;3.37;;
14205;SDS011;7186;48.800;9.216;2022-11-20T04:53:06;3.73;;;3.20;;
14205;SDS011;7186;48.800;9.216;2022-11-20T04:55:32;5.30;;;3.33;;
14205;SDS011;7186;48.800;9.216;2022-11-20T04:57:57;4.77;;;3.90;;
14205;SDS011;7186;48.800;9.216;2022-11-20T05:00:23;4.10;;;3.10;;
14205;SDS011;7186;48.800;9.216;2022-11-20T05:02:48;4.13;;;3.33;;
14205;SDS011;7186;48.800;9.216;2022-11-20T05:05:14;4.10;;;3.53;;
14205;SDS011;7186;48.800;9.216;2022-11-20T05:07:39;4.37;;;3.27;;
14205;SDS011;7186;48.800;9.216;2022-11-20T05:10:04;5.07;;;3.20;;
14205;SDS011;7186;48.800;9.216;2022-11-20T05:12:29;6.80;;;3.43;;
14205;SDS011;7186;48.800;9.216;2022-11-20T05:14:56;5.33;;;3.57;;
14205;SDS011;7186;48.800;9.216;2022-11-20T05:17:21;5.97;;;3.37;;
14205;SDS011;7186;48.800;9.216;2022-11-20T05:19:46;5.57;;;3.70;;
14205;SDS011;7186;48.800;9.216;2022-11-20T05:22:11;4.70;;;2.90;;
14205;SDS011;7186;48.800;9.216;2022-11-20T05:24:36;3.70;;;3.03;;
14205;SDS011;7186;48.800;9.216;2022-11-20T05:27:02;4.07;;;3.53;;
14205;SDS011;7186;48.800;9.216;2022-11-20T05:29:27;5.30;;;3.90;;
14205;SDS011;7186;48.800;9.216;2022-11-20T05:31:52;4.63;;;4.00;;
14205;SDS011;7186;48.800;9.216;2022-11-20T05:34:17;5.33;;;3.40;;
14205;SDS011;7186;48.800;9.216;2022-11-20T05:36:42;6.10;;;3.63;;
14205;SDS011;7186;48.800;9.216;2022-11-20T05:39:08;4.23;;;3.47;;
14205;SDS011;7186;48.800;9.216;2022-11-20T05:41:33;3.87;;;3.03;;
14205;SDS011;7186;48.800;9.216;2022-11-20T05:43:58;6.20;;;3.17;;
14205;SDS011;7186;48.800;9.216;2022-11-20T05:46:23;4.10;;;3.20;;
14205;SDS011;7186;48.800;9.216;2022-11-20T05:48:49;4.27;;;3.10;;
14205;SDS011;7186;48.800;9.216;2022-11-20T05:51:15;3.83;;;3.03;;
14205;SDS011;7186;48.800;9.216;2022-11-20T05:53:41;6.13;;;3.37;;
14205;SDS011;7186;48.800;9.216;2022-11-20T05:56:08;5.10;;;3.30;;
14205;SDS011;7186;48.800;9.216;2022-11-20T05:58:35;5.17;;;2.90;;
14205;SDS011;7186;48.800;9.216;2022-11-20T06:03:37;3.10;;;2.80;;
14205;SDS011;7186;48.800;9.216;2022-11-20T06:06:04;3.07;;;2.77;;
14205;SDS011;7186;48.800;9.216;2022-11-20T06:08:29;3.93;;;3.37;;
14205;SDS011;7186;48.800;9.216;2022-11-20T06:10:54;2.93;;;2.63;;
14205;SDS011;7186;48.800;9.216;2022-11-20T06:13:19;4.43;;;2.97;;
14205;SDS011;7186;48.800;9.216;2022-11-20T06:15:51;3.73;;;3.10;;
14205;SDS011;7186;48.800;9.216;2022-11-20T06:18:16;3.83;;;2.87;;
14205;SDS011;7186;48.800;9.216;2022-11-20T06:20:42;2.93;;;2.67;;
14205;SDS011;7186;48.800;9.216;2022-11-20T06:23:07;5.17;;;3.30;;
14205;SDS011;7186;48.800;9.216;2022-11-20T06:25:32;3.70;;;2.80;;
14205;SDS011;7186;48.800;9.216;2022-11-20T06:27:57;4.30;;;2.80;;
14205;SDS011;7186;48.800;9.216;2022-11-20T06:30:22;3.27;;;2.90;;
14205;SDS011;7186;48.800;9.216;2022-11-20T06:32:48;3.90;;;2.57;;
14205;SDS011;7186;48.800;9.216;2022-11-20T06:35:13;3.23;;;2.90;;
14205;SDS011;7186;48.800;9.216;2022-11-20T06:37:38;3.10;;;2.30;;
14205;SDS011;7186;48.800;9.216;2022-11-20T06:40:03;3.07;;;2.70;;
14205;SDS011;7186;48.800;9.216;2022-11-20T06:42:29;5.43;;;3.00;;
14205;SDS011;7186;48.800;9.216;2022-11-20T06:44:55;3.37;;;2.70;;
14205;SDS011;7186;48.800;9.216;2022-11-20T06:47:21;3.40;;;2.63;;
14205;SDS011;7186;48.800;9.216;2022-11-20T06:49:46;2.93;;;2.63;;
14205;SDS011;7186;48.800;9.216;2022-11-20T06:52:11;2.57;;;2.30;;
14205;SDS011;7186;48.800;9.216;2022-11-20T06:54:36;4.13;;;2.80;;
14205;SDS011;7186;48.800;9.216;2022-11-20T06:57:01;2.70;;;2.50;;
14205;SDS011;7186;48.800;9.216;2022-11-20T06:59:26;4.07;;;2.63;;
14205;SDS011;7186;48.800;9.216;2022-11-20T07:01:52;2.70;;;2.30;;
14205;SDS011;7186;48.800;9.216;2022-11-20T07:04:17;2.70;;;2.37;;
14205;SDS011;7186;48.800;9.216;2022-11-20T07:06:42;2.83;;;2.10;;
14205;SDS011;7186;48.800;9.216;2022-11-20T07:09:07;4.13;;;2.17;;
14205;SDS011;7186;48.800;9.216;2022-11-20T07:11:32;2.57;;;2.37;;
14205;SDS011;7186;48.800;9.216;2022-11-20T07:13:58;2.30;;;2.10;;
14205;SDS011;7186;48.800;9.216;2022-11-20T07:16:23;2.57;;;2.27;;
14205;SDS011;7186;48.800;9.216;2022-11-20T07:18:48;3.87;;;2.40;;
14205;SDS011;7186;48.800;9.216;2022-11-20T07:21:14;2.80;;;2.50;;
14205;SDS011;7186;48.800;9.216;2022-11-20T07:23:39;3.13;;;2.17;;
14205;SDS011;7186;48.800;9.216;2022-11-20T07:26:05;3.37;;;2.40;;
14205;SDS011;7186;48.800;9.216;2022-11-20T07:28:30;6.93;;;2.50;;
14205;SDS011;7186;48.800;9.216;2022-11-20T07:30:56;3.07;;;2.60;;
14205;SDS011;7186;48.800;9.216;2022-11-20T07:33:21;2.50;;;2.30;;
14205;SDS011;7186;48.800;9.216;2022-11-20T07:35:46;3.23;;;2.40;;
14205;SDS011;7186;48.800;9.216;2022-11-20T07:38:12;3.10;;;2.40;;
14205;SDS011;7186;48.800;9.216;2022-11-20T07:40:37;5.03;;;2.40;;
14205;SDS011;7186;48.800;9.216;2022-11-20T07:43:02;2.90;;;2.53;;
14205;SDS011;7186;48.800;9.216;2022-11-20T07:45:27;2.63;;;2.43;;
14205;SDS011;7186;48.800;9.216;2022-11-20T07:47:53;2.60;;;2.40;;
14205;SDS011;7186;48.800;9.216;2022-11-20T07:50:18;3.27;;;2.27;;
14205;SDS011;7186;48.800;9.216;2022-11-20T07:52:47;2.43;;;2.23;;
14205;SDS011;7186;48.800;9.216;2022-11-20T07:55:12;3.17;;;2.87;;
14205;SDS011;7186;48.800;9.216;2022-11-20T07:57:38;5.07;;;2.37;;
14205;SDS011;7186;48.800;9.216;2022-11-20T08:00:03;3.80;;;2.40;;
14205;SDS011;7186;48.800;9.216;2022-11-20T08:02:29;2.87;;;2.20;;
14205;SDS011;7186;48.800;9.216;2022-11-20T08:04:54;5.50;;;2.40;;
14205;SDS011;7186;48.800;9.216;2022-11-20T08:07:20;2.97;;;2.40;;
14205;SDS011;7186;48.800;9.216;2022-11-20T08:09:45;4.47;;;2.20;;
14205;SDS011;7186;48.800;9.216;2022-11-20T08:12:16;2.60;;;2.40;;
14205;SDS011;7186;48.800;9.216;2022-11-20T08:15:01;3.60;;;2.30;;
14205;SDS011;7186;48.800;9.216;2022-11-20T08:17:26;2.67;;;2.13;;
14205;SDS011;7186;48.800;9.216;2022-11-20T08:19:52;2.33;;;2.00;;
14205;SDS011;7186;48.800;9.216;2022-11-20T08:22:17;2.80;;;2.13;;
14205;SDS011;7186;48.800;9.216;2022-11-20T08:24:45;3.57;;;2.10;;
14205;SDS011;7186;48.800;9.216;2022-11-20T08:27:11;3.50;;;2.33;;
14205;SDS011;7186;48.800;9.216;2022-11-20T08:29:39;3.30;;;2.27;;
14205;SDS011;7186;48.800;9.216;2022-11-20T08:32:04;2.27;;;2.07;;
14205;SDS011;7186;48.800;9.216;2022-11-20T08:34:30;2.50;;;2.30;;
14205;SDS011;7186;48.800;9.216;2022-11-20T08:36:55;2.93;;;2.00;;
14205;SDS011;7186;48.800;9.216;2022-11-20T08:39:21;3.43;;;2.10;;
14205;SDS011;7186;48.800;9.216;2022-11-20T08:41:46;3.57;;;2.27;;
14205;SDS011;7186;48.800;9.216;2022-11-20T08:44:14;2.20;;;2.00;;
14205;SDS011;7186;48.800;9.216;2022-11-20T08:46:40;2.63;;;2.20;;
14205;SDS011;7186;48.800;9.216;2022-11-20T08:49:09;3.13;;;2.20;;
14205;SDS011;7186;48.800;9.216;2022-11-20T08:51:34;2.43;;;2.23;;
14205;SDS011;7186;48.800;9.216;2022-11-20T08:54:00;5.07;;;2.83;;
14205;SDS011;7186;48.800;9.216;2022-11-20T08:56:25;2.20;;;2.00;;
14205;SDS011;7186;48.800;9.216;2022-11-20T08:58:51;2.53;;;2.00;;
14205;SDS011;7186;48.800;9.216;2022-11-20T09:01:17;2.27;;;1.80;;
14205;SDS011;7186;48.800;9.216;2022-11-20T09:03:43;1.87;;;1.67;;
14205;SDS011;7186;48.800;9.216;2022-11-20T09:06:08;1.93;;;1.70;;
14205;SDS011;7186;48.800;9.216;2022-11-20T09:08:34;2.97;;;1.60;;
14205;SDS011;7186;48.800;9.216;2022-11-20T09:11:01;2.07;;;1.50;;
14205;SDS011;7186;48.800;9.216;2022-11-20T09:13:35;1.63;;;1.53;;
14205;SDS011;7186;48.800;9.216;2022-11-20T09:16:07;1.73;;;1.63;;
14205;SDS011;7186;48.800;9.216;2022-11-20T09:18:33;2.10;;;1.50;;
14205;SDS011;7186;48.800;9.216;2022-11-20T09:21:11;1.47;;;1.37;;
14205;SDS011;7186;48.800;9.216;2022-11-20T09:23:38;2.17;;;1.60;;
14205;SDS011;7186;48.800;9.216;2022-11-20T09:26:07;2.93;;;1.43;;
14205;SDS011;7186;48.800;9.216;2022-11-20T09:28:34;2.00;;;1.30;;
14205;SDS011;7186;48.800;9.216;2022-11-20T09:30:59;2.40;;;1.70;;
14205;SDS011;7186;48.800;9.216;2022-11-20T09:33:25;1.73;;;1.63;;
14205;SDS011;7186;48.800;9.216;2022-11-20T09:35:50;1.50;;;1.40;;
14205;SDS011;7186;48.800;9.216;2022-11-20T09:38:17;1.27;;;1.20;;
14205;SDS011;7186;48.800;9.216;2022-11-20T09:40:51;1.40;;;1.30;;
14205;SDS011;7186;48.800;9.216;2022-11-20T09:43:28;1.03;;;1.03;;
14205;SDS011;7186;48.800;9.216;2022-11-20T09:46:14;1.40;;;1.30;;
14205;SDS011;7186;48.800;9.216;2022-11-20T09:51:16;1.40;;;1.30;;
14205;SDS011;7186;48.800;9.216;2022-11-20T09:53:46;1.10;;;1.10;;
14205;SDS011;7186;48.800;9.216;2022-11-20T09:56:17;1.60;;;1.20;;
14205;SDS011;7186;48.800;9.216;2022-11-20T09:58:50;1.07;;;0.97;;
14205;SDS011;7186;48.800;9.216;2022-11-20T10:04:18;0.80;;;0.80;;
14205;SDS011;7186;48.800;9.216;2022-11-20T10:11:40;1.23;;;1.10;;
14205;SDS011;7186;48.800;9.216;2022-11-20T10:17:00;1.70;;;1.27;;
14205;SDS011;7186;48.800;9.216;2022-11-20T10:22:09;1.60;;;1.50;;
14205;SDS011;7186;48.800;9.216;2022-11-20T10:24:42;1.60;;;1.50;;
14205;SDS011;7186;48.800;9.216;2022-11-20T10:29:47;1.57;;;1.47;;
14205;SDS011;7186;48.800;9.216;2022-11-20T10:32:19;1.57;;;1.47;;
14205;SDS011;7186;48.800;9.216;2022-11-20T10:37:26;1.27;;;1.17;;
14205;SDS011;7186;48.800;9.216;2022-11-20T10:39:59;1.07;;;1.00;;
14205;SDS011;7186;48.800;9.216;2022-11-20T10:42:34;1.20;;;1.10;;
14205;SDS011;7186;48.800;9.216;2022-11-20T10:47:38;1.87;;;1.40;;
14205;SDS011;7186;48.800;9.216;2022-11-20T10:50:04;1.40;;;1.30;;
14205;SDS011;7186;48.800;9.216;2022-11-20T11:00:09;0.97;;;0.97;;
14205;SDS011;7186;48.800;9.216;2022-11-20T11:02:39;1.60;;;1.50;;
14205;SDS011;7186;48.800;9.216;2022-11-20T11:05:09;2.33;;;1.90;;
14205;SDS011;7186;48.800;9.216;2022-11-20T11:07:38;1.77;;;1.57;;
14205;SDS011;7186;48.800;9.216;2022-11-20T11:12:42;1.67;;;1.57;;
14205;SDS011;7186;48.800;9.216;2022-11-20T11:15:12;1.40;;;1.30;;
14205;SDS011;7186;48.800;9.216;2022-11-20T11:17:46;1.40;;;1.30;;
14205;SDS011;7186;48.800;9.216;2022-11-20T11:20:15;1.40;;;1.30;;
14205;SDS011;7186;48.800;9.216;2022-11-20T11:25:18;37.60;;;23.10;;
14205;SDS011;7186;48.800;9.216;2022-11-20T11:27:47;18.80;;;12.63;;
14205;SDS011;7186;48.800;9.216;2022-11-20T11:30:13;2.57;;;2.37;;
14205;SDS011;7186;48.800;9.216;2022-11-20T11:32:40;2.50;;;1.77;;
14205;SDS011;7186;48.800;9.216;2022-11-20T11:35:11;2.00;;;1.77;;
14205;SDS011;7186;48.800;9.216;2022-11-20T11:37:44;3.33;;;2.00;;
14205;SDS011;7186;48.800;9.216;2022-11-20T11:40:10;2.57;;;1.93;;
14205;SDS011;7186;48.800;9.216;2022-11-20T11:42:41;3.20;;;2.07;;
14205;SDS011;7186;48.800;9.216;2022-11-20T11:45:07;1.60;;;1.50;;
14205;SDS011;7186;48.800;9.216;2022-11-20T11:47:35;2.90;;;1.63;;
14205;SDS011;7186;48.800;9.216;2022-11-20T11:52:36;4.50;;;2.20;;
14205;SDS011;7186;48.800;9.216;2022-11-20T11:55:03;2.07;;;1.63;;
14205;SDS011;7186;48.800;9.216;2022-11-20T11:57:32;2.90;;;1.70;;
14205;SDS011;7186;48.800;9.216;2022-11-20T12:00:19;3.43;;;1.63;;
14205;SDS011;7186;48.800;9.216;2022-11-20T12:11:20;2.70;;;1.70;;
14205;SDS011;7186;48.800;9.216;2022-11-20T12:17:12;2.17;;;1.70;;
14205;SDS011;7186;48.800;9.216;2022-11-20T12:19:38;3.43;;;1.87;;
14205;SDS011;7186;48.800;9.216;2022-11-20T12:24:34;1.60;;;1.50;;
14205;SDS011;7186;48.800;9.216;2022-11-20T12:27:14;2.77;;;1.47;;
14205;SDS011;7186;48.800;9.216;2022-11-20T12:32:52;1.97;;;1.50;;
14205;SDS011;7186;48.800;9.216;2022-11-20T12:46:06;1.27;;;1.20;;
14205;SDS011;7186;48.800;9.216;2022-11-20T12:48:38;1.40;;;1.30;;
14205;SDS011;7186;48.800;9.216;2022-11-20T12:51:37;1.70;;;1.60;;
14205;SDS011;7186;48.800;9.216;2022-11-20T12:57:03;1.33;;;1.10;;
14205;SDS011;7186;48.800;9.216;2022-11-20T13:02:13;3.37;;;1.63;;
14205;SDS011;7186;48.800;9.216;2022-11-20T13:07:29;2.27;;;1.23;;
14205;SDS011;7186;48.800;9.216;2022-11-20T13:10:18;2.90;;;1.10;;
14205;SDS011;7186;48.800;9.216;2022-11-20T13:15:47;2.60;;;1.20;;
14205;SDS011;7186;48.800;9.216;2022-11-20T13:18:16;1.57;;;1.27;;
14205;SDS011;7186;48.800;9.216;2022-11-20T13:20:44;2.17;;;1.20;;
14205;SDS011;7186;48.800;9.216;2022-11-20T13:23:27;4.00;;;1.23;;
14205;SDS011;7186;48.800;9.216;2022-11-20T13:28:36;2.17;;;1.40;;
14205;SDS011;7186;48.800;9.216;2022-11-20T13:31:02;1.77;;;1.40;;
14205;SDS011;7186;48.800;9.216;2022-11-20T13:33:31;2.47;;;0.83;;
14205;SDS011;7186;48.800;9.216;2022-11-20T13:38:23;1.10;;;1.00;;
14205;SDS011;7186;48.800;9.216;2022-11-20T13:40:55;1.20;;;1.10;;
14205;SDS011;7186;48.800;9.216;2022-11-20T13:46:07;1.10;;;1.10;;
14205;SDS011;7186;48.800;9.216;2022-11-20T13:48:40;1.03;;;1.03;;
14205;SDS011;7186;48.800;9.216;2022-11-20T13:51:14;1.77;;;1.13;;
14205;SDS011;7186;48.800;9.216;2022-11-20T13:56:25;1.50;;;1.30;;
14205;SDS011;7186;48.800;9.216;2022-11-20T14:01:24;4.00;;;1.40;;
14205;SDS011;7186;48.800;9.216;2022-11-20T14:03:49;1.80;;;1.30;;
14205;SDS011;7186;48.800;9.216;2022-11-20T14:06:23;2.10;;;1.00;;
14205;SDS011;7186;48.800;9.216;2022-11-20T14:08:50;1.53;;;1.30;;
14205;SDS011;7186;48.800;9.216;2022-11-20T14:11:17;1.13;;;1.10;;
14205;SDS011;7186;48.800;9.216;2022-11-20T14:16:19;2.60;;;1.60;;
14205;SDS011;7186;48.800;9.216;2022-11-20T14:18:44;1.83;;;1.20;;
14205;SDS011;7186;48.800;9.216;2022-11-20T14:21:09;1.37;;;1.27;;
14205;SDS011;7186;48.800;9.216;2022-11-20T14:23:35;3.67;;;1.50;;
14205;SDS011;7186;48.800;9.216;2022-11-20T14:26:00;1.90;;;1.43;;
14205;SDS011;7186;48.800;9.216;2022-11-20T14:28:29;2.00;;;1.23;;
14205;SDS011;7186;48.800;9.216;2022-11-20T14:30:55;2.27;;;1.13;;
14205;SDS011;7186;48.800;9.216;2022-11-20T14:33:23;1.30;;;1.27;;
14205;SDS011;7186;48.800;9.216;2022-11-20T14:35:53;1.30;;;1.30;;
14205;SDS011;7186;48.800;9.216;2022-11-20T14:38:26;1.53;;;1.40;;
14205;SDS011;7186;48.800;9.216;2022-11-20T14:40:52;2.60;;;1.50;;
14205;SDS011;7186;48.800;9.216;2022-11-20T14:43:24;2.03;;;1.60;;
14205;SDS011;7186;48.800;9.216;2022-11-20T14:45:54;6.00;;;1.60;;
14205;SDS011;7186;48.800;9.216;2022-11-20T14:48:22;4.07;;;1.30;;
14205;SDS011;7186;48.800;9.216;2022-11-20T14:50:49;2.23;;;1.50;;
14205;SDS011;7186;48.800;9.216;2022-11-20T14:53:14;3.33;;;1.70;;
14205;SDS011;7186;48.800;9.216;2022-11-20T14:55:53;2.00;;;1.47;;
14205;SDS011;7186;48.800;9.216;2022-11-20T14:58:20;4.67;;;2.70;;
14205;SDS011;7186;48.800;9.216;2022-11-20T15:00:53;2.23;;;1.80;;
14205;SDS011;7186;48.800;9.216;2022-11-20T15:03:18;4.47;;;3.17;;
14205;SDS011;7186;48.800;9.216;2022-11-20T15:05:45;8.03;;;3.50;;
14205;SDS011;7186;48.800;9.216;2022-11-20T15:08:10;3.97;;;2.50;;
14205;SDS011;7186;48.800;9.216;2022-11-20T15:10:36;2.97;;;1.77;;
14205;SDS011;7186;48.800;9.216;2022-11-20T15:13:03;1.83;;;1.67;;
14205;SDS011;7186;48.800;9.216;2022-11-20T15:15:30;1.80;;;1.63;;
14205;SDS011;7186;48.800;9.216;2022-11-20T15:17:57;4.13;;;2.07;;
14205;SDS011;7186;48.800;9.216;2022-11-20T15:20:24;2.70;;;2.10;;
14205;SDS011;7186;48.800;9.216;2022-11-20T15:22:51;1.80;;;1.70;;
14205;SDS011;7186;48.800;9.216;2022-11-20T15:25:17;2.80;;;1.70;;
14205;SDS011;7186;48.800;9.216;2022-11-20T15:27:43;3.17;;;1.60;;
14205;SDS011;7186;48.800;9.216;2022-11-20T15:30:12;3.13;;;2.10;;
14205;SDS011;7186;48.800;9.216;2022-11-20T15:32:38;3.33;;;1.80;;
14205;SDS011;7186;48.800;9.216;2022-11-20T15:35:03;5.30;;;1.57;;
14205;SDS011;7186;48.800;9.216;2022-11-20T15:37:28;4.13;;;2.27;;
14205;SDS011;7186;48.800;9.216;2022-11-20T15:39:54;1.80;;;1.70;;
14205;SDS011;7186;48.800;9.216;2022-11-20T15:42:19;5.73;;;1.70;;
14205;SDS011;7186;48.800;9.216;2022-11-20T15:44:45;1.63;;;1.50;;
14205;SDS011;7186;48.800;9.216;2022-11-20T15:47:10;1.87;;;1.77;;
14205;SDS011;7186;48.800;9.216;2022-11-20T15:49:35;3.47;;;1.67;;
14205;SDS011;7186;48.800;9.216;2022-11-20T15:52:02;3.00;;;1.80;;
14205;SDS011;7186;48.800;9.216;2022-11-20T15:54:27;1.70;;;1.60;;
14205;SDS011;7186;48.800;9.216;2022-11-20T15:56:52;4.90;;;2.30;;
14205;SDS011;7186;48.800;9.216;2022-11-20T15:59:18;1.70;;;1.60;;
14205;SDS011;7186;48.800;9.216;2022-11-20T16:01:43;2.03;;;1.80;;
14205;SDS011;7186;48.800;9.216;2022-11-20T16:04:09;2.20;;;2.00;;
14205;SDS011;7186;48.800;9.216;2022-11-20T16:06:35;2.57;;;1.60;;
14205;SDS011;7186;48.800;9.216;2022-11-20T16:09:00;2.77;;;2.20;;
14205;SDS011;7186;48.800;9.216;2022-11-20T16:11:25;3.33;;;1.67;;
14205;SDS011;7186;48.800;9.216;2022-11-20T16:13:50;11.67;;;6.77;;
14205;SDS011;7186;48.800;9.216;2022-11-20T16:16:35;2.20;;;2.00;;
14205;SDS011;7186;48.800;9.216;2022-11-20T16:19:01;2.50;;;1.93;;
14205;SDS011;7186;48.800;9.216;2022-11-20T16:21:27;3.37;;;2.20;;
14205;SDS011;7186;48.800;9.216;2022-11-20T16:24:00;3.17;;;2.20;;
14205;SDS011;7186;48.800;9.216;2022-11-20T16:26:25;4.77;;;2.03;;
14205;SDS011;7186;48.800;9.216;2022-11-20T16:28:51;3.37;;;2.50;;
14205;SDS011;7186;48.800;9.216;2022-11-20T16:31:17;2.30;;;2.10;;
14205;SDS011;7186;48.800;9.216;2022-11-20T16:33:42;2.57;;;2.00;;
14205;SDS011;7186;48.800;9.216;2022-11-20T16:36:08;2.47;;;2.10;;
14205;SDS011;7186;48.800;9.216;2022-11-20T16:38:34;3.43;;;2.33;;
14205;SDS011;7186;48.800;9.216;2022-11-20T16:41:02;2.33;;;2.00;;